Time;durP1;ratioP1;P1;durP2;ratioP2;P2;SDS_P1;SDS_P2;PMS_P1;PMS_P2;Temp;Humidity;BMP_temperature;BMP_pressure;BME280_temperature;BME280_humidity;BME280_pressure;Samples;Min_cycle;Max_cycle;Signal;HPM_P1;HPM_P2
2023/01/18 00:00:27;;;;;;;;;;;;;;;12.00;73.24;98744.53;1052279;28;654;-67
2023/01/18 00:01:20;;;;;;;;;;;;;;;11.98;73.47;98754.56;1047655;28;669;-67
2023/01/18 00:02:10;;;;;;;;;;;;;;;12.00;73.62;98752.53;1050273;28;1204;-67
2023/01/18 00:03:01;;;;;;;;;;;;;;;11.96;73.28;98751.22;1051305;28;685;-67
2023/01/18 00:03:51;;;;;;;;;;;;;;;11.93;72.77;98746.19;1052381;28;1095;-67
2023/01/18 00:04:42;;;;;;;;;;;;;;;11.95;73.67;98744.19;1052098;28;1905;-67
2023/01/18 00:05:32;;;;;;;;;;;;;;;11.94;72.99;98747.84;1051837;28;693;-67
2023/01/18 00:06:26;;;;;;;;;;;;;;;11.96;73.69;98745.88;1052132;28;646;-66
2023/01/18 00:07:17;;;;;;;;;;;;;;;11.95;73.01;98746.03;1053247;28;622;-66
2023/01/18 00:08:07;;;;;;;;;;;;;;;11.97;73.49;98749.38;1051712;28;682;-66
2023/01/18 00:08:57;;;;;;;;;;;;;;;11.97;73.37;98750.22;1052335;28;1154;-66
2023/01/18 00:09:48;;;;;;;;;;;;;;;11.96;73.52;98751.22;1048448;28;670;-66
2023/01/18 00:10:38;;;;;;;;;;;;;;;11.95;73.55;98754.03;1048805;28;1218;-67
2023/01/18 00:11:29;;;;;;;;;;;;;;;11.95;73.06;98746.88;1052184;28;673;-66
2023/01/18 00:12:19;;;;;;;;;;;;;;;11.92;73.18;98747.19;1052901;28;1240;-66
2023/01/18 00:13:09;;;;;;;;;;;;;;;11.91;72.88;98742.81;1052532;28;998;-66
2023/01/18 00:14:01;;;;;;;;;;;;;;;11.92;73.37;98749.00;1051719;28;996;-66
2023/01/18 00:14:52;;;;;;;;;;;;;;;11.92;72.95;98752.50;1048716;28;704;-66
2023/01/18 00:15:42;;;;;;;;;;;;;;;11.94;72.72;98747.03;1049246;28;722;-67
2023/01/18 00:16:33;;;;;;;;;;;;;;;11.96;72.67;98753.03;1048270;28;720;-66
2023/01/18 00:17:23;;;;;;;;;;;;;;;11.94;72.85;98753.19;1051950;28;1174;-67
2023/01/18 00:18:13;;;;;;;;;;;;;;;11.92;72.85;98752.50;1052001;28;719;-66
2023/01/18 00:19:05;;;;;;;;;;;;;;;11.91;73.61;98747.34;1048648;28;843;-66
2023/01/18 00:19:55;;;;;;;;;;;;;;;11.92;73.48;98749.84;1048015;28;614;-67
2023/01/18 00:20:46;;;;;;;;;;;;;;;11.93;73.66;98750.69;1052651;28;708;-66
2023/01/18 00:21:36;;;;;;;;;;;;;;;11.90;73.75;98749.16;1051709;28;1159;-67
2023/01/18 00:22:27;;;;;;;;;;;;;;;11.93;73.55;98750.69;1048366;28;642;-67
2023/01/18 00:23:17;;;;;;;;;;;;;;;11.90;73.22;98749.16;1048881;28;618;-66
2023/01/18 00:24:09;;;;;;;;;;;;;;;11.93;73.81;98756.03;1048901;28;653;-66
2023/01/18 00:25:00;;;;;;;;;;;;;;;11.92;73.24;98752.50;1050344;28;2011;-66
2023/01/18 00:25:50;;;;;;;;;;;;;;;11.92;73.19;98765.03;1048305;28;610;-67
2023/01/18 00:26:41;;;;;;;;;;;;;;;11.89;73.00;98755.50;1049130;28;1182;-67
2023/01/18 00:27:32;;;;;;;;;;;;;;;11.87;73.73;98756.66;1052647;28;1035;-66
2023/01/18 00:28:23;;;;;;;;;;;;;;;11.86;73.30;98755.81;1051520;28;1158;-66
2023/01/18 00:29:13;;;;;;;;;;;;;;;11.89;73.02;98747.50;1052390;28;1663;-66
2023/01/18 00:30:04;;;;;;;;;;;;;;;11.90;73.75;98753.66;1049121;28;689;-66
2023/01/18 00:30:54;;;;;;;;;;;;;;;11.88;73.86;98750.31;1051766;28;603;-66
2023/01/18 00:31:45;;;;;;;;;;;;;;;11.88;73.31;98750.31;1051942;28;705;-67
2023/01/18 00:32:35;;;;;;;;;;;;;;;11.89;72.95;98752.00;1053030;28;784;-66
2023/01/18 00:33:25;;;;;;;;;;;;;;;11.88;72.97;98758.31;1052060;28;638;-67
2023/01/18 00:34:16;;;;;;;;;;;;;;;11.88;73.83;98753.81;1052647;28;826;-67
2023/01/18 00:35:07;;;;;;;;;;;;;;;11.88;73.31;98759.16;1049717;28;1001;-66
2023/01/18 00:35:57;;;;;;;;;;;;;;;11.86;73.31;98753.13;1052145;28;677;-66
2023/01/18 00:36:47;;;;;;;;;;;;;;;11.86;73.70;98758.47;1048844;28;626;-67
2023/01/18 00:37:38;;;;;;;;;;;;;;;11.83;72.89;98748.94;1048565;28;689;-67
2023/01/18 00:38:28;;;;;;;;;;;;;;;11.85;73.32;98756.81;1047629;28;611;-66
2023/01/18 00:39:19;;;;;;;;;;;;;;;11.84;73.27;98752.47;1047845;28;1159;-66
2023/01/18 00:40:09;;;;;;;;;;;;;;;11.84;72.98;98752.47;1048249;28;606;-66
2023/01/18 00:41:00;;;;;;;;;;;;;;;11.86;73.76;98754.97;1051123;28;1136;-66
2023/01/18 00:44:08;;;;;;;;;;;;;;;11.87;72.94;98746.81;1052828;28;1185;-66
2023/01/18 00:44:58;;;;;;;;;;;;;;;11.84;73.56;98752.47;1048193;28;1889;-66
2023/01/18 00:45:49;;;;;;;;;;;;;;;11.81;73.21;98750.13;1048510;28;638;-66
2023/01/18 00:46:39;;;;;;;;;;;;;;;11.79;73.82;98750.28;1047725;28;642;-67
2023/01/18 00:47:30;;;;;;;;;;;;;;;11.78;72.90;98745.94;1052008;28;642;-67
2023/01/18 00:48:20;;;;;;;;;;;;;;;11.78;73.31;98745.94;1051786;28;1166;-66
2023/01/18 00:49:11;;;;;;;;;;;;;;;11.81;73.81;98747.47;1051812;28;728;-66
2023/01/18 00:50:01;;;;;;;;;;;;;;;11.80;73.00;98746.63;1051990;28;1166;-67
2023/01/18 00:50:51;;;;;;;;;;;;;;;11.79;73.80;98744.94;1051797;28;746;-66
2023/01/18 00:51:42;;;;;;;;;;;;;;;11.81;72.90;98750.97;1052086;28;634;-67
2023/01/18 00:52:33;;;;;;;;;;;;;;;11.80;73.00;98748.47;1051809;28;678;-67
2023/01/18 00:53:24;;;;;;;;;;;;;;;11.82;73.05;98743.81;1051933;28;622;-67
2023/01/18 00:54:14;;;;;;;;;;;;;;;11.81;73.56;98753.63;1051998;28;669;-66
2023/01/18 00:55:04;;;;;;;;;;;;;;;11.79;73.21;98750.28;1051722;28;1127;-66
2023/01/18 00:55:55;;;;;;;;;;;;;;;11.78;72.98;98745.09;1051931;28;818;-66
2023/01/18 00:56:45;;;;;;;;;;;;;;;11.75;73.06;98756.06;1051551;28;1520;-66
2023/01/18 00:57:36;;;;;;;;;;;;;;;11.76;73.76;98760.44;1048837;28;643;-67
2023/01/18 00:58:27;;;;;;;;;;;;;;;11.77;73.03;98751.44;1052109;28;663;-66
2023/01/18 00:59:18;;;;;;;;;;;;;;;11.77;73.16;98752.28;1050521;28;1585;-66
2023/01/18 01:00:08;;;;;;;;;;;;;;;11.79;73.40;98741.44;1048188;28;749;-67
2023/01/18 01:00:59;;;;;;;;;;;;;;;11.79;73.73;98754.78;1049536;28;1126;-66
2023/01/18 01:01:49;;;;;;;;;;;;;;;11.81;73.07;98752.81;1052064;28;701;-67
2023/01/18 01:02:39;;;;;;;;;;;;;;;11.79;73.62;98749.44;1049774;28;1055;-67
2023/01/18 01:06:42;;;;;;;;;;;;;;;11.79;73.56;98749.44;1052150;28;753;-66
2023/01/18 01:06:58;;;;;;;;;;;;;;;11.78;72.86;98759.28;1052881;28;681;-67
2023/01/18 01:07:49;;;;;;;;;;;;;;;11.77;73.78;98751.44;1051791;28;1595;-67
2023/01/18 01:08:39;;;;;;;;;;;;;;;11.73;73.86;98750.88;1048498;28;953;-67
2023/01/18 01:09:30;;;;;;;;;;;;;;;11.75;73.61;98758.72;1051997;28;657;-67
2023/01/18 01:10:20;;;;;;;;;;;;;;;11.75;73.22;98754.22;1051785;28;1019;-67
2023/01/18 01:11:10;;;;;;;;;;;;;;;11.75;73.15;98758.72;1051804;28;618;-66
2023/01/18 01:26:07;;;;;;;;;;;;;;;11.71;73.74;98766.22;1048768;28;637;-66
2023/01/18 01:26:57;;;;;;;;;;;;;;;11.69;73.84;98765.53;1052261;28;657;-66
2023/01/18 01:27:48;;;;;;;;;;;;;;;11.69;73.63;98768.19;1051974;28;791;-66
2023/01/18 01:28:38;;;;;;;;;;;;;;;11.71;72.90;98763.53;1052274;28;1206;-66
2023/01/18 01:29:29;;;;;;;;;;;;;;;11.72;73.70;98769.72;1052212;28;1711;-66
2023/01/18 01:30:19;;;;;;;;;;;;;;;11.69;73.74;98773.53;1048641;28;670;-67
2023/01/18 01:31:09;;;;;;;;;;;;;;;11.71;73.76;98770.69;1050051;28;1595;-66
2023/01/18 01:32:01;;;;;;;;;;;;;;;11.71;73.82;98773.38;1049583;28;692;-66
2023/01/18 01:32:52;;;;;;;;;;;;;;;11.68;73.62;98769.19;1045753;28;812;-66
2023/01/18 01:33:43;;;;;;;;;;;;;;;11.70;73.75;98771.69;1044539;28;1208;-67
2023/01/18 01:34:34;;;;;;;;;;;;;;;11.71;73.28;98779.53;1050269;28;740;-66
2023/01/18 01:35:25;;;;;;;;;;;;;;;11.71;72.86;98774.22;1049029;28;638;-66
2023/01/18 01:36:15;;;;;;;;;;;;;;;11.70;72.98;98775.19;1049163;28;645;-67
2023/01/18 01:37:06;;;;;;;;;;;;;;;11.71;73.48;98779.53;1048931;28;689;-66
2023/01/18 01:37:56;;;;;;;;;;;;;;;11.72;72.78;98781.22;1052834;28;649;-67
2023/01/18 01:38:46;;;;;;;;;;;;;;;11.71;72.87;98781.38;1052325;28;1314;-67
2023/01/18 01:39:37;;;;;;;;;;;;;;;11.71;73.29;98784.03;1053260;28;725;-67
2023/01/18 01:40:27;;;;;;;;;;;;;;;11.73;73.46;98787.41;1052292;28;1142;-66
2023/01/18 01:41:18;;;;;;;;;;;;;;;11.71;73.75;98773.38;1053167;28;641;-66
2023/01/18 01:42:08;;;;;;;;;;;;;;;11.69;72.90;98788.69;1052342;28;721;-66
2023/01/18 01:42:59;;;;;;;;;;;;;;;11.69;72.83;98783.34;1052977;28;1174;-66
2023/01/18 01:43:49;;;;;;;;;;;;;;;11.70;73.43;98782.38;1052659;28;702;-67
2023/01/18 01:44:39;;;;;;;;;;;;;;;11.70;73.28;98780.53;1052508;28;751;-66
2023/01/18 01:45:30;;;;;;;;;;;;;;;11.68;73.75;98784.34;1052599;28;697;-66
2023/01/18 01:46:20;;;;;;;;;;;;;;;11.68;72.88;98787.84;1052488;28;717;-66
2023/01/18 01:47:11;;;;;;;;;;;;;;;11.68;73.63;98779.03;1051273;28;1062;-66
2023/01/18 01:48:02;;;;;;;;;;;;;;;11.69;73.56;98781.53;1052321;28;1142;-66
2023/01/18 01:48:52;;;;;;;;;;;;;;;11.69;73.63;98788.69;1049676;28;662;-66
2023/01/18 01:49:43;;;;;;;;;;;;;;;11.68;73.00;98789.69;1047817;28;729;-66
2023/01/18 01:50:33;;;;;;;;;;;;;;;11.67;72.76;98788.00;1052453;28;1184;-66
2023/01/18 01:51:23;;;;;;;;;;;;;;;11.67;72.90;98793.34;1052475;28;642;-66
2023/01/18 01:52:14;;;;;;;;;;;;;;;11.67;73.49;98788.00;1051153;28;1111;-66
2023/01/18 01:53:04;;;;;;;;;;;;;;;11.66;73.03;98789.00;1052376;28;701;-66
2023/01/18 01:53:55;;;;;;;;;;;;;;;11.67;73.47;98788.84;1048897;28;860;-66
2023/01/18 01:54:46;;;;;;;;;;;;;;;11.66;72.97;98791.66;1049286;28;655;-66
2023/01/18 01:55:36;;;;;;;;;;;;;;;11.64;73.65;98794.53;1053084;28;645;-66
2023/01/18 01:56:28;;;;;;;;;;;;;;;11.63;73.71;98794.69;1052306;28;1041;-66
2023/01/18 01:57:18;;;;;;;;;;;;;;;11.62;73.86;98795.66;1053133;28;1237;-66
2023/01/18 01:58:09;;;;;;;;;;;;;;;11.62;73.79;98796.50;1052370;28;706;-66
2023/01/18 01:58:59;;;;;;;;;;;;;;;11.63;73.20;98786.69;1052899;28;1452;-66
2023/01/18 01:59:49;;;;;;;;;;;;;;;11.64;72.88;98783.84;1049754;28;1063;-67
2023/01/18 02:00:40;;;;;;;;;;;;;;;11.63;72.99;98787.50;1045772;28;697;-67
2023/01/18 02:01:30;;;;;;;;;;;;;;;11.62;73.54;98791.19;1052781;28;654;-67
2023/01/18 02:02:21;;;;;;;;;;;;;;;11.61;73.15;98788.66;1052299;28;1172;-67
2023/01/18 02:03:11;;;;;;;;;;;;;;;11.62;73.76;98790.34;1052497;28;627;-67
2023/01/18 02:04:02;;;;;;;;;;;;;;;11.62;73.63;98785.00;1049583;28;642;-67
2023/01/18 02:04:53;;;;;;;;;;;;;;;11.65;73.93;98795.34;1049245;28;1917;-67
2023/01/18 02:05:44;;;;;;;;;;;;;;;11.65;73.74;98787.34;1052479;28;618;-67
2023/01/18 02:06:34;;;;;;;;;;;;;;;11.65;72.93;98798.00;1047153;28;1217;-67
2023/01/18 02:07:27;;;;;;;;;;;;;;;11.63;73.53;98797.34;1048660;28;634;-67
2023/01/18 02:08:21;;;;;;;;;;;;;;;11.61;73.39;98799.34;1049667;28;1091;-66
2023/01/18 02:09:11;;;;;;;;;;;;;;;11.61;72.97;98794.00;1052366;28;702;-66
2023/01/18 02:10:02;;;;;;;;;;;;;;;11.60;72.99;98795.00;1052985;28;1217;-67
2023/01/18 02:10:52;;;;;;;;;;;;;;;11.60;73.17;98795.00;1052153;28;744;-67
2023/01/18 02:11:43;;;;;;;;;;;;;;;11.59;73.10;98801.31;1049401;28;549;-66
2023/01/18 02:12:33;;;;;;;;;;;;;;;11.56;73.37;98796.28;1050439;28;988;-66
2023/01/18 02:13:24;;;;;;;;;;;;;;;11.56;73.31;98793.63;1052519;28;694;-67
2023/01/18 02:14:15;;;;;;;;;;;;;;;11.56;74.01;98801.63;1052501;28;1218;-66
2023/01/18 02:15:05;;;;;;;;;;;;;;;11.58;73.79;98799.63;1052744;28;1167;-66
2023/01/18 02:15:56;;;;;;;;;;;;;;;11.56;74.02;98804.28;1052402;28;706;-66
2023/01/18 02:16:46;;;;;;;;;;;;;;;11.57;73.74;98798.81;1048994;28;1163;-67
2023/01/18 02:17:37;;;;;;;;;;;;;;;11.59;72.94;98806.66;1049454;28;1052;-66
2023/01/18 02:18:27;;;;;;;;;;;;;;;11.57;73.03;98806.81;1052406;28;635;-66
2023/01/18 02:19:18;;;;;;;;;;;;;;;11.58;73.24;98812.97;1050619;28;1103;-66
2023/01/18 02:20:08;;;;;;;;;;;;;;;11.58;73.84;98811.16;1052243;28;635;-66
2023/01/18 02:20:59;;;;;;;;;;;;;;;11.59;72.93;98811.97;1050340;28;1027;-66
2023/01/18 02:21:49;;;;;;;;;;;;;;;11.58;73.56;98812.97;1052773;28;658;-66
2023/01/18 02:22:40;;;;;;;;;;;;;;;11.56;73.16;98801.63;1052695;28;1131;-66
2023/01/18 02:23:31;;;;;;;;;;;;;;;11.57;73.64;98811.28;1053090;28;642;-67
2023/01/18 02:24:22;;;;;;;;;;;;;;;11.58;73.68;98810.31;1050896;28;1162;-67
2023/01/18 02:25:12;;;;;;;;;;;;;;;11.58;72.81;98805.81;1052398;28;1894;-67
2023/01/18 02:26:03;;;;;;;;;;;;;;;11.56;72.96;98806.97;1052494;28;669;-67
2023/01/18 02:26:53;;;;;;;;;;;;;;;11.58;73.90;98808.47;1050545;28;639;-67
2023/01/18 02:27:44;;;;;;;;;;;;;;;11.55;73.16;98802.59;1052913;28;621;-67
2023/01/18 02:28:35;;;;;;;;;;;;;;;11.57;73.76;98816.63;1051427;28;655;-67
2023/01/18 02:29:25;;;;;;;;;;;;;;;11.57;73.03;98808.63;1049300;28;657;-67
2023/01/18 02:30:16;;;;;;;;;;;;;;;11.56;73.79;98806.97;1052395;28;765;-67
2023/01/18 02:31:06;;;;;;;;;;;;;;;11.57;73.34;98803.28;1052658;28;688;-67
2023/01/18 02:31:57;;;;;;;;;;;;;;;11.53;73.92;98810.75;1051804;28;961;-67
2023/01/18 02:32:47;;;;;;;;;;;;;;;11.55;73.79;98810.63;1052381;28;1209;-67
2023/01/18 02:33:37;;;;;;;;;;;;;;;11.55;73.96;98810.63;1052800;28;742;-67
2023/01/18 02:34:28;;;;;;;;;;;;;;;11.54;73.54;98808.94;1052640;28;720;-67
2023/01/18 02:35:18;;;;;;;;;;;;;;;11.56;73.00;98809.63;1052147;28;705;-67
2023/01/18 02:36:09;;;;;;;;;;;;;;;11.57;72.88;98809.47;1052154;28;1289;-67
2023/01/18 02:36:59;;;;;;;;;;;;;;;11.55;73.78;98813.28;1048889;28;610;-67
2023/01/18 02:37:50;;;;;;;;;;;;;;;11.54;73.86;98817.78;1050231;28;960;-67
2023/01/18 02:38:40;;;;;;;;;;;;;;;11.52;73.18;98813.59;1048901;28;681;-67
2023/01/18 02:39:37;;;;;;;;;;;;;;;11.53;73.88;98812.59;1051426;28;1497;-67
2023/01/18 02:40:27;;;;;;;;;;;;;;;11.51;73.59;98815.41;1049678;28;1127;-67
2023/01/18 02:41:17;;;;;;;;;;;;;;;11.49;73.36;98815.56;1052191;28;773;-67
2023/01/18 02:46:45;;;;;;;;;;;;;;;11.47;73.15;98814.88;1048659;28;638;-67
2023/01/18 02:47:35;;;;;;;;;;;;;;;11.49;73.51;98818.25;1051011;28;1226;-67
2023/01/18 02:48:26;;;;;;;;;;;;;;;11.52;73.17;98816.25;1048694;28;607;-67
2023/01/18 02:49:16;;;;;;;;;;;;;;;11.53;73.24;98815.25;1049105;28;1195;-66
2023/01/18 02:50:06;;;;;;;;;;;;;;;11.51;73.73;98817.25;1048284;28;704;-67
2023/01/18 02:50:57;;;;;;;;;;;;;;;11.49;73.73;98826.25;1049264;28;686;-67
2023/01/18 02:51:47;;;;;;;;;;;;;;;11.51;74.05;98819.91;1053429;28;744;-67
2023/01/18 02:52:38;;;;;;;;;;;;;;;11.48;73.83;98821.06;1052047;28;1168;-67
2023/01/18 02:53:28;;;;;;;;;;;;;;;11.49;74.11;98817.41;1053107;28;649;-67
2023/01/18 02:54:23;;;;;;;;;;;;;;;11.46;73.61;98818.53;1051221;28;945;-66
2023/01/18 02:55:13;;;;;;;;;;;;;;;11.46;73.45;98823.88;1052408;28;638;-67
2023/01/18 02:56:03;;;;;;;;;;;;;;;11.46;74.05;98818.53;1051990;28;1016;-67
2023/01/18 02:56:54;;;;;;;;;;;;;;;11.45;73.43;98816.06;1052410;28;859;-67
2023/01/18 02:57:44;;;;;;;;;;;;;;;11.47;73.93;98824.72;1052062;28;1166;-66
2023/01/18 02:58:35;;;;;;;;;;;;;;;11.49;73.62;98820.06;1052289;28;866;-67
2023/01/18 02:59:25;;;;;;;;;;;;;;;11.49;73.68;98817.41;1052692;28;1159;-66
2023/01/18 03:00:17;;;;;;;;;;;;;;;11.50;74.03;98819.06;1051692;28;677;-66
2023/01/18 03:01:08;;;;;;;;;;;;;;;11.46;74.07;98820.41;1049936;28;981;-67
2023/01/18 03:01:58;;;;;;;;;;;;;;;11.45;73.84;98816.91;1052260;28;1124;-66
2023/01/18 03:02:49;;;;;;;;;;;;;;;11.45;73.36;98821.38;1049790;28;578;-66
2023/01/18 03:03:39;;;;;;;;;;;;;;;11.42;73.89;98817.19;1052375;28;654;-66
2023/01/18 03:04:29;;;;;;;;;;;;;;;11.44;73.70;98817.88;1051978;28;1198;-66
2023/01/18 03:05:20;;;;;;;;;;;;;;;11.43;73.59;98815.38;1048980;28;773;-66
2023/01/18 03:06:10;;;;;;;;;;;;;;;11.40;73.40;98813.84;1049325;28;1151;-66
2023/01/18 03:07:01;;;;;;;;;;;;;;;11.44;73.29;98817.88;1052434;28;651;-67
2023/01/18 03:07:51;;;;;;;;;;;;;;;11.44;73.19;98822.38;1052294;28;1155;-67
2023/01/18 03:08:42;;;;;;;;;;;;;;;11.41;73.21;98828.03;1052110;28;761;-66
2023/01/18 03:09:32;;;;;;;;;;;;;;;11.41;73.79;98815.53;1052378;28;649;-66
2023/01/18 03:10:22;;;;;;;;;;;;;;;11.42;73.63;98817.19;1053329;28;757;-67
2023/01/18 03:11:13;;;;;;;;;;;;;;;11.43;73.25;98818.03;1051979;28;1103;-67
2023/01/18 03:12:03;;;;;;;;;;;;;;;11.44;73.16;98820.56;1052369;28;802;-67
2023/01/18 03:12:54;;;;;;;;;;;;;;;11.42;74.13;98827.88;1052578;28;1214;-66
2023/01/18 03:13:44;;;;;;;;;;;;;;;11.40;73.95;98827.19;1048707;28;684;-67
2023/01/18 03:14:34;;;;;;;;;;;;;;;11.40;74.11;98823.69;1051700;28;1235;-67
2023/01/18 03:15:25;;;;;;;;;;;;;;;11.40;73.49;98827.19;1052746;28;1468;-66
2023/01/18 03:16:15;;;;;;;;;;;;;;;11.40;73.93;98827.19;1049146;28;733;-67
2023/01/18 03:17:06;;;;;;;;;;;;;;;11.43;73.22;98828.72;1048568;28;637;-67
2023/01/18 03:17:57;;;;;;;;;;;;;;;11.41;73.79;98828.03;1052386;28;619;-67
2023/01/18 03:18:59;;;;;;;;;;;;;;;11.42;73.41;98827.88;1049201;28;705;-67
2023/01/18 03:20:06;;;;;;;;;;;;;;;11.38;73.35;98831.81;1049484;28;952;-67
2023/01/18 03:20:56;;;;;;;;;;;;;;;11.41;73.54;98828.84;1047059;28;1095;-67
2023/01/18 03:21:47;;;;;;;;;;;;;;;11.41;73.43;98836.03;1048474;28;1189;-67
2023/01/18 03:23:48;;;;;;;;;;;;;;;11.42;73.68;98832.38;1053282;28;1193;-67
2023/01/18 03:24:40;;;;;;;;;;;;;;;11.42;73.15;98832.38;1051287;28;1062;-67
2023/01/18 03:25:30;;;;;;;;;;;;;;;11.41;74.03;98831.53;1050272;28;1078;-67
2023/01/18 03:26:21;;;;;;;;;;;;;;;11.39;74.12;98836.16;1051520;28;1094;-67
2023/01/18 03:34:08;;;;;;;;;;;;;;;11.32;74.18;98827.09;1052799;28;1085;-67
2023/01/18 03:34:59;;;;;;;;;;;;;;;11.34;73.93;98834.94;1051860;28;1094;-67
2023/01/18 03:35:49;;;;;;;;;;;;;;;11.33;74.00;98833.28;1050124;28;997;-67
2023/01/18 03:36:39;;;;;;;;;;;;;;;11.35;73.44;98826.78;1051341;28;1098;-67
2023/01/18 03:37:30;;;;;;;;;;;;;;;11.34;73.86;98829.63;1048057;28;1068;-67
2023/01/18 03:38:20;;;;;;;;;;;;;;;11.34;74.05;98833.13;1047112;28;1170;-67
2023/01/18 03:39:11;;;;;;;;;;;;;;;11.34;73.92;98830.44;1052908;28;1182;-67
2023/01/18 03:40:02;;;;;;;;;;;;;;;11.34;74.03;98826.94;1051789;28;1155;-67
2023/01/18 03:40:52;;;;;;;;;;;;;;;11.33;73.24;98830.59;1052792;28;1135;-67
2023/01/18 03:41:43;;;;;;;;;;;;;;;11.34;73.82;98827.78;1051893;28;1219;-67
2023/01/18 03:42:34;;;;;;;;;;;;;;;11.35;73.53;98836.63;1049698;28;1076;-67
2023/01/18 03:43:24;;;;;;;;;;;;;;;11.34;74.14;98833.13;1051927;28;772;-66
2023/01/18 03:44:15;;;;;;;;;;;;;;;11.34;73.66;98841.13;1048489;28;681;-67
2023/01/18 03:45:05;;;;;;;;;;;;;;;11.32;73.14;98840.44;1048001;28;1890;-67
2023/01/18 03:45:56;;;;;;;;;;;;;;;11.31;73.27;98830.75;1048046;28;618;-67
2023/01/18 03:46:46;;;;;;;;;;;;;;;11.30;73.88;98839.75;1050581;28;1155;-67
2023/01/18 03:47:37;;;;;;;;;;;;;;;11.29;73.99;98832.72;1048452;28;677;-67
2023/01/18 03:48:27;;;;;;;;;;;;;;;11.31;73.87;98838.75;1051751;28;1166;-67
2023/01/18 03:49:17;;;;;;;;;;;;;;;11.32;73.43;98836.91;1048409;28;607;-67
2023/01/18 03:50:08;;;;;;;;;;;;;;;11.31;73.21;98835.25;1051482;28;1204;-67
2023/01/18 03:51:01;;;;;;;;;;;;;;;11.29;73.27;98847.88;1051899;28;697;-67
2023/01/18 03:51:52;;;;;;;;;;;;;;;11.31;73.35;98846.75;1052447;28;1162;-67
2023/01/18 03:52:42;;;;;;;;;;;;;;;11.32;73.25;98836.91;1048748;28;708;-67
2023/01/18 03:53:33;;;;;;;;;;;;;;;11.30;74.00;98845.06;1047810;28;1249;-67
2023/01/18 03:54:24;;;;;;;;;;;;;;;11.30;74.18;98842.41;1051968;28;670;-67
2023/01/18 03:55:15;;;;;;;;;;;;;;;11.29;74.22;98843.41;1050620;28;925;-67
2023/01/18 03:56:06;;;;;;;;;;;;;;;11.29;73.86;98848.72;1052019;28;622;-67
2023/01/18 03:56:56;;;;;;;;;;;;;;;11.30;73.93;98841.56;1052951;28;1063;-67
2023/01/18 03:57:48;;;;;;;;;;;;;;;11.31;73.34;98846.75;1051768;28;1159;-66
2023/01/18 03:58:41;;;;;;;;;;;;;;;11.32;73.46;98837.75;1048359;28;646;-66
2023/01/18 03:59:31;;;;;;;;;;;;;;;11.31;73.71;98846.75;1051638;28;1065;-66
2023/01/18 04:00:21;;;;;;;;;;;;;;;11.31;73.42;98838.75;1047877;28;635;-67
2023/01/18 04:01:12;;;;;;;;;;;;;;;11.27;73.51;98848.06;1052212;28;1481;-66
2023/01/18 04:02:02;;;;;;;;;;;;;;;11.28;73.90;98851.56;1049262;28;1156;-66
2023/01/18 04:02:53;;;;;;;;;;;;;;;11.28;73.83;98852.41;1051217;28;1135;-67
2023/01/18 04:03:43;;;;;;;;;;;;;;;11.29;73.43;98843.41;1048994;28;640;-67
2023/01/18 04:04:33;;;;;;;;;;;;;;;11.28;73.89;98844.41;1049984;28;1155;-66
2023/01/18 04:05:24;;;;;;;;;;;;;;;11.25;73.50;98842.06;1051958;28;618;-66
2023/01/18 04:06:15;;;;;;;;;;;;;;;11.26;73.65;98849.06;1051976;28;701;-66
2023/01/18 04:07:05;;;;;;;;;;;;;;;11.25;74.28;98844.72;1051856;28;1146;-67
2023/01/18 04:07:56;;;;;;;;;;;;;;;11.30;74.19;98846.91;1052132;28;1009;-67
2023/01/18 04:08:46;;;;;;;;;;;;;;;11.29;73.58;98840.72;1051777;28;1127;-67
2023/01/18 04:09:36;;;;;;;;;;;;;;;11.28;73.82;98855.09;1051291;28;956;-67
2023/01/18 04:10:27;;;;;;;;;;;;;;;11.31;73.43;98845.91;1052480;28;1233;-67
2023/01/18 04:11:17;;;;;;;;;;;;;;;11.28;73.66;98844.41;1051133;28;978;-67
2023/01/18 04:12:08;;;;;;;;;;;;;;;11.30;74.07;98846.91;1052396;28;1177;-67
2023/01/18 04:12:58;;;;;;;;;;;;;;;11.28;73.44;98847.09;1052165;28;987;-67
2023/01/18 04:13:49;;;;;;;;;;;;;;;11.27;73.94;98849.91;1051682;28;1190;-67
2023/01/18 04:14:39;;;;;;;;;;;;;;;11.28;74.06;98849.75;1051335;28;1122;-67
2023/01/18 04:15:29;;;;;;;;;;;;;;;11.28;74.05;98849.75;1052574;28;1034;-65
2023/01/18 04:16:20;;;;;;;;;;;;;;;11.27;73.98;98848.06;1050632;28;1094;-65
2023/01/18 04:17:10;;;;;;;;;;;;;;;11.27;73.92;98848.06;1049971;28;1118;-65
2023/01/18 04:18:01;;;;;;;;;;;;;;;11.26;73.30;98841.06;1052277;28;1128;-66
2023/01/18 04:18:51;;;;;;;;;;;;;;;11.25;73.66;98841.22;1050035;28;1071;-67
2023/01/18 04:19:42;;;;;;;;;;;;;;;11.25;73.94;98839.38;1052069;28;1333;-68
2023/01/18 04:20:32;;;;;;;;;;;;;;;11.25;73.82;98847.38;1052353;28;1289;-65
2023/01/18 04:21:22;;;;;;;;;;;;;;;11.23;73.40;98852.03;1052100;28;1226;-65
2023/01/18 04:22:13;;;;;;;;;;;;;;;11.24;73.27;98851.03;1050628;28;1155;-65
2023/01/18 04:23:03;;;;;;;;;;;;;;;11.28;74.01;98847.09;1050927;28;1156;-65
2023/01/18 04:23:54;;;;;;;;;;;;;;;11.27;73.83;98856.06;1049744;28;1009;-65
2023/01/18 04:24:44;;;;;;;;;;;;;;;11.27;73.43;98850.75;1051767;28;1187;-65
2023/01/18 04:25:37;;;;;;;;;;;;;;;11.27;73.92;98850.75;1050468;28;980;-65
2023/01/18 04:26:28;;;;;;;;;;;;;;;11.25;74.03;98857.22;1052529;28;675;-65
2023/01/18 04:27:19;;;;;;;;;;;;;;;11.22;73.25;98853.00;1051848;28;727;-64
2023/01/18 04:28:09;;;;;;;;;;;;;;;11.24;73.88;98851.03;1051772;28;1115;-65
2023/01/18 04:29:00;;;;;;;;;;;;;;;11.24;73.35;98855.53;1051541;28;1567;-65
2023/01/18 04:29:50;;;;;;;;;;;;;;;11.23;73.52;98849.34;1052286;28;1134;-65
2023/01/18 04:30:40;;;;;;;;;;;;;;;11.24;73.38;98856.38;1048838;28;642;-65
2023/01/18 04:31:31;;;;;;;;;;;;;;;11.23;73.46;98860.03;1051973;28;717;-64
2023/01/18 04:32:21;;;;;;;;;;;;;;;11.22;73.92;98854.84;1048892;28;1020;-65
2023/01/18 04:33:12;;;;;;;;;;;;;;;11.24;73.89;98855.53;1051940;28;691;-65
2023/01/18 04:34:02;;;;;;;;;;;;;;;11.25;73.10;98863.38;1052032;28;685;-65
2023/01/18 04:34:53;;;;;;;;;;;;;;;11.22;73.96;98866.34;1051674;28;1135;-65
2023/01/18 04:35:43;;;;;;;;;;;;;;;11.22;73.30;98865.50;1047852;28;690;-66
2023/01/18 04:36:33;;;;;;;;;;;;;;;11.21;73.94;98856.66;1047482;28;678;-64
2023/01/18 04:37:29;;;;;;;;;;;;;;;11.18;73.69;98859.63;1051916;28;701;-67
2023/01/18 04:38:20;;;;;;;;;;;;;;;11.18;73.41;98862.31;1051832;28;738;-65
2023/01/18 04:39:10;;;;;;;;;;;;;;;11.20;73.39;98859.50;1049003;28;694;-64
2023/01/18 04:40:01;;;;;;;;;;;;;;;11.23;73.52;98865.34;1049646;28;1159;-66
2023/01/18 04:40:51;;;;;;;;;;;;;;;11.22;73.22;98857.50;1053078;28;872;-65
2023/01/18 04:41:42;;;;;;;;;;;;;;;11.21;74.10;98864.66;1051606;28;1154;-66
2023/01/18 04:42:32;;;;;;;;;;;;;;;11.21;73.98;98864.66;1051906;28;689;-65
2023/01/18 04:43:22;;;;;;;;;;;;;;;11.20;73.61;98870.16;1051528;28;684;-65
2023/01/18 04:44:13;;;;;;;;;;;;;;;11.19;74.01;98863.97;1052340;28;1155;-66
2023/01/18 04:45:03;;;;;;;;;;;;;;;11.21;73.27;98864.66;1051983;28;1952;-65
2023/01/18 04:45:54;;;;;;;;;;;;;;;11.17;73.39;98865.94;1051692;28;1202;-64
2023/01/18 04:46:44;;;;;;;;;;;;;;;11.18;73.87;98864.97;1048436;28;709;-66
2023/01/18 04:47:35;;;;;;;;;;;;;;;11.20;73.46;98865.66;1050837;28;1218;-64
2023/01/18 04:48:25;;;;;;;;;;;;;;;11.19;73.72;98863.97;1048441;28;634;-66
2023/01/18 04:49:16;;;;;;;;;;;;;;;11.20;74.04;98870.16;1051653;28;700;-66
2023/01/18 04:50:07;;;;;;;;;;;;;;;11.18;73.26;98866.78;1049441;28;1131;-66
2023/01/18 04:50:57;;;;;;;;;;;;;;;11.20;74.09;98871.00;1052128;28;649;-66
2023/01/18 04:51:47;;;;;;;;;;;;;;;11.21;73.75;98866.50;1050227;28;1076;-66
2023/01/18 04:52:38;;;;;;;;;;;;;;;11.19;73.82;98873.81;1051887;28;711;-66
2023/01/18 04:53:28;;;;;;;;;;;;;;;11.18;73.87;98867.63;1051890;28;1263;-66
2023/01/18 04:54:19;;;;;;;;;;;;;;;11.21;73.99;98880.66;1051652;28;1047;-67
2023/01/18 04:55:10;;;;;;;;;;;;;;;11.17;73.50;98871.28;1048592;28;736;-66
2023/01/18 04:56:00;;;;;;;;;;;;;;;11.17;73.29;98875.78;1049100;28;1020;-67
2023/01/18 04:56:51;;;;;;;;;;;;;;;11.17;73.40;98875.78;1051714;28;1137;-67
2023/01/18 04:57:41;;;;;;;;;;;;;;;11.15;73.83;98870.59;1052480;28;670;-67
2023/01/18 04:58:32;;;;;;;;;;;;;;;11.14;74.10;98882.25;1051359;28;685;-67
2023/01/18 04:59:22;;;;;;;;;;;;;;;11.16;73.60;98876.75;1050775;28;691;-67
2023/01/18 05:00:14;;;;;;;;;;;;;;;11.18;73.63;98877.47;1051879;28;641;-67
2023/01/18 05:01:04;;;;;;;;;;;;;;;11.16;73.16;98879.44;1052582;28;774;-67